Time;durP1;ratioP1;P1;durP2;ratioP2;P2;SDS_P1;SDS_P2;PMS_P1;PMS_P2;Temp;Humidity;BMP_temperature;BMP_pressure;BME280_temperature;BME280_humidity;BME280_pressure;Samples;Min_cycle;Max_cycle;Signal;HPM_P1;HPM_P2
2022/07/27 00:00:49;;;;;;;1.70;1.60;;;18.70;85.40;;;;;;5046949;28;20029;-59
2022/07/27 00:03:14;;;;;;;2.40;1.60;;;18.70;85.40;;;;;;5046617;28;20040;-58
2022/07/27 00:05:40;;;;;;;3.72;1.95;;;18.70;85.40;;;;;;5047173;28;20025;-58
2022/07/27 00:08:06;;;;;;;1.75;1.65;;;18.70;85.40;;;;;;5046770;28;20033;-58
2022/07/27 00:10:35;;;;;;;2.65;1.90;;;18.70;85.50;;;;;;5046673;28;20489;-58
2022/07/27 00:13:02;;;;;;;2.58;1.85;;;18.70;85.40;;;;;;5048470;28;20584;-58
2022/07/27 00:15:28;;;;;;;2.05;1.85;;;18.70;85.40;;;;;;5048162;28;20028;-58
2022/07/27 00:17:55;;;;;;;2.55;1.80;;;18.70;85.40;;;;;;5044802;28;20025;-58
2022/07/27 00:20:21;;;;;;;4.95;2.33;;;18.70;86.10;;;;;;5028892;28;20120;-58
2022/07/27 00:22:47;;;;;;;2.42;2.08;;;18.70;85.40;;;;;;5046653;28;20108;-58
2022/07/27 00:25:12;;;;;;;2.45;1.85;;;18.70;85.30;;;;;;5046550;28;20155;-58
2022/07/27 00:27:38;;;;;;;3.80;2.15;;;18.70;85.70;;;;;;5045493;28;20028;-60
2022/07/27 00:30:04;;;;;;;1.90;1.80;;;18.70;85.60;;;;;;5047546;28;20021;-58
2022/07/27 00:32:30;;;;;;;1.70;1.60;;;18.70;85.20;;;;;;5045278;28;20029;-58
2022/07/27 00:34:55;;;;;;;2.50;2.00;;;18.70;85.30;;;;;;5047804;28;20036;-60
2022/07/27 00:37:21;;;;;;;2.58;2.17;;;18.70;85.20;;;;;;5049388;28;20061;-58
2022/07/27 00:39:47;;;;;;;2.72;1.83;;;18.60;85.40;;;;;;5050611;28;20079;-58
2022/07/27 00:42:12;;;;;;;3.15;1.90;;;18.60;86.50;;;;;;5051323;28;20099;-58
2022/07/27 00:44:38;;;;;;;2.92;1.90;;;18.60;86.70;;;;;;5049638;28;20083;-59
2022/07/27 00:47:04;;;;;;;3.63;2.20;;;18.50;86.20;;;;;;5049909;28;20481;-58
2022/07/27 00:49:29;;;;;;;4.15;2.05;;;18.50;87.10;;;;;;5049102;28;20029;-58
2022/07/27 00:51:55;;;;;;;3.45;1.88;;;18.50;87.30;;;;;;5050631;28;20489;-58
2022/07/27 00:54:21;;;;;;;4.40;1.70;;;18.50;87.30;;;;;;5049284;28;20377;-59
2022/07/27 00:56:48;;;;;;;2.08;1.85;;;18.50;87.40;;;;;;5048843;28;20033;-58
2022/07/27 00:59:14;;;;;;;2.50;1.70;;;18.50;87.50;;;;;;5049104;28;20036;-59
2022/07/27 01:01:41;;;;;;;2.33;2.05;;;18.50;87.70;;;;;;5050808;28;20032;-58
2022/07/27 01:04:07;;;;;;;5.20;1.88;;;18.50;87.90;;;;;;5049429;28;20072;-58
2022/07/27 01:06:33;;;;;;;5.40;1.85;;;18.40;87.60;;;;;;5050539;28;20053;-58
2022/07/27 01:11:45;;;;;;;3.90;1.92;;;18.40;88.60;;;;;;5049059;28;20083;-58
2022/07/27 01:14:13;;;;;;;2.05;1.63;;;18.40;88.70;;;;;;5050450;28;20033;-58
2022/07/27 01:16:39;;;;;;;1.75;1.65;;;18.40;88.60;;;;;;5048707;28;20056;-58
2022/07/27 01:19:11;;;;;;;2.58;1.80;;;18.40;89.20;;;;;;5050160;28;20028;-58
2022/07/27 01:21:37;;;;;;;2.38;2.05;;;18.40;89.30;;;;;;5047969;28;20051;-59
2022/07/27 01:24:04;;;;;;;2.72;1.90;;;18.40;89.50;;;;;;5050202;28;20116;-58
2022/07/27 01:26:31;;;;;;;1.75;1.65;;;18.40;89.60;;;;;;5049334;28;20072;-58
2022/07/27 01:28:58;;;;;;;2.47;1.73;;;18.40;89.50;;;;;;5048908;28;20492;-58
2022/07/27 01:31:24;;;;;;;2.65;1.70;;;18.40;89.60;;;;;;5049243;28;20025;-58
2022/07/27 01:33:50;;;;;;;1.70;1.60;;;18.40;89.30;;;;;;5049631;28;20489;-58
2022/07/27 01:36:15;;;;;;;1.98;1.83;;;18.40;89.30;;;;;;5050047;28;20049;-58
2022/07/27 01:38:42;;;;;;;1.88;1.77;;;18.40;89.50;;;;;;5049130;28;20401;-58
2022/07/27 01:41:07;;;;;;;2.00;1.88;;;18.40;89.60;;;;;;5049980;28;20047;-58
2022/07/27 01:43:33;;;;;;;1.80;1.40;;;18.40;90.00;;;;;;5049070;28;20480;-58
2022/07/27 01:45:59;;;;;;;2.42;2.03;;;18.40;90.00;;;;;;5031225;28;20025;-58
2022/07/27 01:48:25;;;;;;;2.42;1.63;;;18.40;90.10;;;;;;5048130;28;20017;-58
2022/07/27 01:50:51;;;;;;;1.90;1.80;;;18.30;90.20;;;;;;5049541;28;20029;-58
2022/07/27 01:53:18;;;;;;;3.95;1.83;;;18.30;90.10;;;;;;5048132;28;20033;-58
2022/07/27 01:55:44;;;;;;;3.70;1.75;;;18.40;90.30;;;;;;5049288;28;20106;-58
2022/07/27 01:58:10;;;;;;;2.20;2.03;;;18.40;90.40;;;;;;5048408;28;20531;-58
2022/07/27 02:00:36;;;;;;;1.98;1.73;;;18.40;90.10;;;;;;5048914;28;20036;-59
2022/07/27 02:03:03;;;;;;;2.00;1.67;;;18.40;90.20;;;;;;5049199;28;20100;-58
2022/07/27 02:05:29;;;;;;;1.60;1.50;;;18.40;90.30;;;;;;5048124;28;20128;-58
2022/07/27 02:07:55;;;;;;;1.70;1.60;;;18.40;90.30;;;;;;5047717;28;20111;-58
2022/07/27 02:10:21;;;;;;;2.88;2.10;;;18.40;90.60;;;;;;5047684;28;20499;-58
2022/07/27 02:12:46;;;;;;;2.00;1.80;;;18.40;90.50;;;;;;5049270;28;20029;-58
2022/07/27 02:15:18;;;;;;;2.20;2.00;;;18.40;90.60;;;;;;5048642;28;20079;-58
2022/07/27 02:17:44;;;;;;;3.08;2.00;;;18.40;90.70;;;;;;5048679;28;20033;-58
2022/07/27 02:20:12;;;;;;;11.43;2.35;;;18.40;90.70;;;;;;5046684;28;20041;-59
2022/07/27 02:22:37;;;;;;;2.25;1.90;;;18.40;91.10;;;;;;5049191;28;20040;-58
2022/07/27 02:25:05;;;;;;;2.78;1.70;;;18.30;91.30;;;;;;5047055;28;20037;-58
2022/07/27 02:27:31;;;;;;;2.38;1.80;;;18.30;90.90;;;;;;5049257;28;20032;-58
2022/07/27 02:29:56;;;;;;;2.45;1.67;;;18.30;91.60;;;;;;5048160;28;20021;-58
2022/07/27 02:32:23;;;;;;;1.70;1.60;;;18.20;91.60;;;;;;5048386;28;20460;-58
2022/07/27 02:34:48;;;;;;;2.85;1.80;;;18.20;91.60;;;;;;5049051;28;20025;-58
2022/07/27 02:37:14;;;;;;;1.80;1.70;;;18.20;91.80;;;;;;5047718;28;20029;-58
2022/07/27 02:39:40;;;;;;;2.72;1.77;;;18.20;91.60;;;;;;5048810;28;20025;-59
2022/07/27 02:42:06;;;;;;;4.22;2.22;;;18.20;92.00;;;;;;5048406;28;20086;-58
2022/07/27 02:44:33;;;;;;;1.70;1.60;;;18.10;92.30;;;;;;5048475;28;20128;-58
2022/07/27 02:46:59;;;;;;;1.88;1.77;;;18.10;92.60;;;;;;5047679;28;20107;-58
2022/07/27 02:49:24;;;;;;;4.63;1.90;;;18.10;92.40;;;;;;5048364;28;20075;-58
2022/07/27 02:51:51;;;;;;;4.35;2.28;;;18.20;92.80;;;;;;5047677;28;20016;-58
2022/07/27 02:54:18;;;;;;;3.38;1.90;;;18.10;92.80;;;;;;5048523;28;20037;-58
2022/07/27 02:56:44;;;;;;;3.22;2.25;;;18.10;92.90;;;;;;5047651;28;20036;-58
2022/07/27 02:59:10;;;;;;;3.60;1.95;;;18.10;93.40;;;;;;5047573;28;20035;-58
2022/07/27 03:01:36;;;;;;;2.63;2.05;;;18.00;93.70;;;;;;5048438;28;20025;-58
2022/07/27 03:04:03;;;;;;;3.22;1.67;;;18.00;94.40;;;;;;5047573;28;20033;-58
2022/07/27 03:06:28;;;;;;;4.85;2.28;;;17.90;95.20;;;;;;5048076;28;20029;-58
2022/07/27 03:08:54;;;;;;;2.35;2.15;;;17.90;99.90;;;;;;5046860;28;20115;-58
2022/07/27 03:11:20;;;;;;;5.93;2.78;;;17.80;99.90;;;;;;5048459;28;20025;-59
2022/07/27 03:13:46;;;;;;;4.50;3.88;;;17.60;99.90;;;;;;5047465;28;20017;-59
2022/07/27 03:16:11;;;;;;;4.38;3.05;;;17.50;99.90;;;;;;5047620;28;20025;-58
2022/07/27 03:18:37;;;;;;;3.22;2.92;;;17.30;99.90;;;;;;5047263;28;20156;-60
2022/07/27 03:21:03;;;;;;;4.20;3.60;;;17.20;99.90;;;;;;5047633;28;20015;-60
2022/07/27 03:23:31;;;;;;;4.57;4.18;;;16.90;99.90;;;;;;5047442;28;20029;-60
2022/07/27 03:25:57;;;;;;;5.32;3.92;;;16.80;99.90;;;;;;5047359;28;20033;-60
2022/07/27 03:28:23;;;;;;;4.47;3.80;;;16.60;99.90;;;;;;5048435;28;20388;-60
2022/07/27 03:30:48;;;;;;;5.88;4.05;;;16.50;99.90;;;;;;5047065;28;20017;-61
2022/07/27 03:33:14;;;;;;;4.32;4.03;;;16.40;99.90;;;;;;5048232;28;20029;-60
2022/07/27 03:35:39;;;;;;;8.00;5.00;;;16.30;99.90;;;;;;5047441;28;20037;-60
2022/07/27 03:38:05;;;;;;;5.65;5.15;;;16.20;99.90;;;;;;5048143;28;20036;-60
2022/07/27 03:40:32;;;;;;;8.70;4.72;;;16.20;99.90;;;;;;5047325;28;20064;-60
2022/07/27 03:42:58;;;;;;;6.43;5.80;;;16.10;99.90;;;;;;5047588;28;20108;-60
2022/07/27 03:45:24;;;;;;;5.82;5.35;;;16.10;99.90;;;;;;5046759;28;20116;-60
2022/07/27 03:47:50;;;;;;;9.25;5.50;;;16.00;99.90;;;;;;5046963;28;20022;-60
2022/07/27 03:50:16;;;;;;;6.00;5.50;;;16.00;99.90;;;;;;5046223;28;20092;-60
2022/07/27 03:52:41;;;;;;;5.85;5.45;;;16.00;99.90;;;;;;5046966;28;20033;-60
2022/07/27 03:55:07;;;;;;;6.38;5.78;;;16.00;99.90;;;;;;5046677;28;20041;-60
2022/07/27 03:57:33;;;;;;;6.30;5.57;;;16.00;99.90;;;;;;5046544;28;20527;-64
2022/07/27 03:59:59;;;;;;;6.45;5.85;;;16.00;99.90;;;;;;5048233;28;20028;-60
2022/07/27 04:02:24;;;;;;;5.93;5.40;;;16.00;99.90;;;;;;5047252;28;20041;-60
2022/07/27 04:04:50;;;;;;;6.70;5.82;;;15.90;99.90;;;;;;5028836;28;20049;-61
2022/07/27 04:07:16;;;;;;;5.90;5.40;;;15.90;99.90;;;;;;5047294;28;20584;-60
2022/07/27 04:09:41;;;;;;;6.45;5.95;;;16.00;99.90;;;;;;5047052;28;20447;-60
2022/07/27 04:12:07;;;;;;;5.78;5.35;;;16.00;99.90;;;;;;5051249;28;20033;-60
2022/07/27 04:14:33;;;;;;;7.45;6.03;;;16.00;99.90;;;;;;5051604;28;20040;-60
2022/07/27 04:16:58;;;;;;;6.65;6.13;;;15.90;99.90;;;;;;5051323;28;20060;-60
2022/07/27 04:19:24;;;;;;;6.53;6.03;;;15.90;99.90;;;;;;5049811;28;20029;-60
2022/07/27 04:21:50;;;;;;;6.15;5.57;;;16.00;99.90;;;;;;5051412;28;20080;-61
2022/07/27 04:24:15;;;;;;;6.18;5.65;;;16.00;99.90;;;;;;5051572;28;20055;-60
2022/07/27 04:26:41;;;;;;;7.13;6.63;;;16.00;99.90;;;;;;5050735;28;20201;-59
2022/07/27 04:29:07;;;;;;;6.80;6.38;;;16.10;99.90;;;;;;5050437;28;20063;-60
2022/07/27 04:31:33;;;;;;;6.75;6.18;;;16.10;99.90;;;;;;5051378;28;20025;-58
2022/07/27 04:33:58;;;;;;;6.18;5.60;;;16.10;99.90;;;;;;5048553;28;20032;-59
2022/07/27 04:36:24;;;;;;;6.45;5.90;;;16.20;99.90;;;;;;5051285;28;20068;-57
2022/07/27 04:38:50;;;;;;;7.00;6.40;;;16.30;99.90;;;;;;5051152;28;20029;-58
2022/07/27 04:41:16;;;;;;;7.07;6.45;;;16.30;99.90;;;;;;5050317;28;20484;-59
2022/07/27 04:43:42;;;;;;;6.13;5.60;;;16.30;99.90;;;;;;5050862;28;20037;-58
2022/07/27 04:46:07;;;;;;;6.07;5.47;;;16.30;99.90;;;;;;5050818;28;20447;-60
2022/07/27 04:48:34;;;;;;;5.78;5.38;;;16.40;99.90;;;;;;5051409;28;20454;-59
2022/07/27 04:51:00;;;;;;;6.10;5.50;;;16.40;99.90;;;;;;5050659;28;20036;-59
2022/07/27 04:53:26;;;;;;;7.40;6.90;;;16.40;99.90;;;;;;5050897;28;20400;-58
2022/07/27 04:55:52;;;;;;;7.30;6.70;;;16.40;99.90;;;;;;5050228;28;20037;-58
2022/07/27 04:58:18;;;;;;;6.97;6.35;;;16.40;99.90;;;;;;5050582;28;20104;-59
2022/07/27 05:00:44;;;;;;;8.38;6.60;;;16.50;99.90;;;;;;5050833;28;20024;-59
2022/07/27 05:03:10;;;;;;;6.05;5.55;;;16.50;99.90;;;;;;5032750;28;20114;-59
2022/07/27 05:05:36;;;;;;;6.35;5.78;;;16.50;99.90;;;;;;5050755;28;20025;-59
2022/07/27 05:08:02;;;;;;;6.95;5.25;;;16.50;99.90;;;;;;5048193;28;20033;-60
2022/07/27 05:10:29;;;;;;;5.60;5.03;;;16.60;99.90;;;;;;5050968;28;20033;-58
2022/07/27 05:12:54;;;;;;;5.00;4.70;;;16.60;99.90;;;;;;5050448;28;20032;-60
2022/07/27 05:15:21;;;;;;;4.88;4.47;;;16.70;99.90;;;;;;5050796;28;20020;-60
2022/07/27 05:17:47;;;;;;;5.53;5.05;;;16.70;99.90;;;;;;5031375;28;20029;-59
2022/07/27 05:20:13;;;;;;;5.80;5.40;;;16.70;99.90;;;;;;5050137;28;20068;-60
2022/07/27 05:22:39;;;;;;;5.85;4.82;;;16.70;99.90;;;;;;5047895;28;20085;-60
2022/07/27 05:25:05;;;;;;;5.63;5.13;;;16.70;99.90;;;;;;5048160;28;20041;-59
2022/07/27 05:27:31;;;;;;;5.57;5.07;;;16.80;99.90;;;;;;5049935;28;20052;-60
2022/07/27 05:29:57;;;;;;;5.95;4.63;;;16.70;99.90;;;;;;5049726;28;20064;-61
2022/07/27 05:32:23;;;;;;;5.97;4.50;;;16.70;99.90;;;;;;5049338;28;20586;-60
2022/07/27 05:34:48;;;;;;;4.78;4.40;;;16.80;99.90;;;;;;5048339;28;20143;-59
2022/07/27 05:37:14;;;;;;;4.80;4.40;;;16.70;99.90;;;;;;5050084;28;20033;-59
2022/07/27 05:39:42;;;;;;;4.68;4.32;;;16.70;99.90;;;;;;5050370;28;20025;-60
2022/07/27 05:42:09;;;;;;;5.22;4.80;;;16.70;99.90;;;;;;5050724;28;20175;-59
2022/07/27 05:44:35;;;;;;;4.93;4.53;;;16.70;99.90;;;;;;5049556;28;20411;-60
2022/07/27 05:47:00;;;;;;;5.43;5.03;;;16.70;99.90;;;;;;5049414;28;20508;-59
2022/07/27 05:49:26;;;;;;;5.43;4.95;;;16.70;99.90;;;;;;5048571;28;20017;-59
2022/07/27 05:51:52;;;;;;;6.40;4.90;;;16.70;99.90;;;;;;5050066;28;20071;-60
2022/07/27 05:54:18;;;;;;;4.82;4.43;;;16.80;99.90;;;;;;5049949;28;20028;-60
2022/07/27 05:56:44;;;;;;;4.10;3.70;;;16.80;99.90;;;;;;5049255;28;20075;-59
2022/07/27 05:59:10;;;;;;;5.22;4.05;;;16.80;99.90;;;;;;5049866;28;20476;-59
2022/07/27 06:01:36;;;;;;;6.43;4.60;;;16.70;99.90;;;;;;5048910;28;20040;-61
2022/07/27 06:04:02;;;;;;;5.15;3.80;;;16.60;99.90;;;;;;5049849;28;20037;-59
2022/07/27 06:09:12;;;;;;;6.28;4.93;;;16.50;99.90;;;;;;5048299;28;20408;-59
2022/07/27 06:11:38;;;;;;;6.32;5.15;;;16.50;99.90;;;;;;5049433;28;20467;-60
2022/07/27 06:14:03;;;;;;;7.32;4.60;;;16.40;99.90;;;;;;5048742;28;20637;-60
2022/07/27 06:16:29;;;;;;;7.22;5.00;;;16.30;99.90;;;;;;5048383;28;20032;-60
2022/07/27 06:18:55;;;;;;;5.13;4.72;;;16.30;99.90;;;;;;5048991;28;20388;-60
2022/07/27 06:21:24;;;;;;;5.47;4.97;;;16.40;99.90;;;;;;5048706;28;20100;-58
2022/07/27 06:23:50;;;;;;;5.22;4.72;;;16.40;99.90;;;;;;5048541;28;20052;-60
2022/07/27 06:26:16;;;;;;;6.78;5.13;;;16.40;99.90;;;;;;5048614;28;20096;-55
2022/07/27 06:28:42;;;;;;;6.45;5.80;;;16.40;99.90;;;;;;5048933;28;20112;-52
2022/07/27 06:31:08;;;;;;;5.68;5.18;;;16.50;99.90;;;;;;5049286;28;20601;-57
2022/07/27 06:33:33;;;;;;;6.03;4.88;;;16.50;99.90;;;;;;5048398;28;20515;-57
2022/07/27 06:36:00;;;;;;;6.53;4.68;;;16.60;99.90;;;;;;5048803;28;20036;-55
2022/07/27 06:38:26;;;;;;;6.30;5.55;;;16.60;99.90;;;;;;5048127;28;20408;-58
2022/07/27 06:40:53;;;;;;;6.32;4.55;;;16.70;99.90;;;;;;5048894;28;20044;-56
2022/07/27 06:43:24;;;;;;;5.45;4.95;;;16.70;99.90;;;;;;5046670;28;20037;-58
2022/07/27 06:45:50;;;;;;;6.80;5.63;;;16.80;99.90;;;;;;5048797;28;20099;-58
2022/07/27 06:48:17;;;;;;;5.68;4.65;;;16.90;99.90;;;;;;5048619;28;20028;-56
2022/07/27 06:50:42;;;;;;;5.18;4.65;;;16.90;99.90;;;;;;5047411;28;20032;-57
2022/07/27 06:53:08;;;;;;;5.82;4.38;;;17.00;99.90;;;;;;5062631;28;20416;-58
2022/07/27 06:55:34;;;;;;;4.53;4.13;;;17.00;99.90;;;;;;5048241;28;20037;-57
2022/07/27 06:57:59;;;;;;;7.13;4.57;;;17.10;99.90;;;;;;5047939;28;20058;-58
2022/07/27 07:00:25;;;;;;;5.72;4.15;;;17.20;99.90;;;;;;5047450;28;20053;-58
2022/07/27 07:02:52;;;;;;;10.07;4.47;;;17.30;99.90;;;;;;5047965;28;20017;-59
2022/07/27 07:05:18;;;;;;;6.60;4.50;;;17.30;99.90;;;;;;5047495;28;20163;-58
2022/07/27 07:07:44;;;;;;;7.93;4.07;;;17.50;99.90;;;;;;5047157;28;20108;-59
2022/07/27 07:10:09;;;;;;;7.13;4.63;;;17.50;99.90;;;;;;5047565;28;20171;-58
2022/07/27 07:12:35;;;;;;;4.68;4.18;;;17.60;99.90;;;;;;5048493;28;20033;-58
2022/07/27 07:15:04;;;;;;;5.50;4.95;;;17.70;99.90;;;;;;5048279;28;20032;-58
2022/07/27 07:17:29;;;;;;;6.50;4.78;;;17.80;99.90;;;;;;5043168;28;20029;-58
2022/07/27 07:19:55;;;;;;;5.55;4.85;;;17.80;99.90;;;;;;5047001;28;20037;-58
2022/07/27 07:22:21;;;;;;;6.57;5.47;;;17.90;99.90;;;;;;5048933;28;20109;-59
2022/07/27 07:24:47;;;;;;;7.00;5.47;;;18.00;99.90;;;;;;5047251;28;20607;-58
2022/07/27 07:27:12;;;;;;;5.90;5.40;;;18.10;99.90;;;;;;5047737;28;20075;-58
2022/07/27 07:29:38;;;;;;;5.53;5.13;;;18.10;99.90;;;;;;5048142;28;20133;-58
2022/07/27 07:32:04;;;;;;;8.85;4.75;;;18.20;99.90;;;;;;5048365;28;20112;-58
2022/07/27 07:34:30;;;;;;;6.05;5.50;;;18.30;99.90;;;;;;5047441;28;20084;-58
2022/07/27 07:36:56;;;;;;;6.22;5.63;;;18.40;99.90;;;;;;5047816;28;20021;-58
2022/07/27 07:39:22;;;;;;;5.72;5.22;;;18.40;99.90;;;;;;5063022;28;20021;-59
2022/07/27 07:41:48;;;;;;;5.78;5.38;;;18.40;99.90;;;;;;5047994;28;20043;-58
2022/07/27 07:44:13;;;;;;;5.50;5.00;;;18.50;99.90;;;;;;5045172;28;20041;-59
2022/07/27 07:46:39;;;;;;;5.63;4.85;;;18.60;99.90;;;;;;5050895;28;20200;-59
2022/07/27 07:49:05;;;;;;;5.18;4.78;;;18.60;99.90;;;;;;5052054;28;20032;-58
2022/07/27 07:51:30;;;;;;;7.47;5.00;;;18.60;99.90;;;;;;5051867;28;20032;-60
2022/07/27 07:53:57;;;;;;;5.07;4.55;;;18.60;99.90;;;;;;5050126;28;20040;-60
2022/07/27 07:56:22;;;;;;;6.05;4.38;;;18.70;99.90;;;;;;5050255;28;20053;-60
2022/07/27 07:58:48;;;;;;;6.45;4.20;;;18.80;99.90;;;;;;5051801;28;20033;-60
2022/07/27 08:01:13;;;;;;;4.22;3.83;;;18.90;99.90;;;;;;5053927;28;20044;-61
2022/07/27 08:03:39;;;;;;;4.38;3.97;;;19.10;99.90;;;;;;5051823;28;20029;-60
2022/07/27 08:06:05;;;;;;;5.82;4.40;;;19.20;99.90;;;;;;5051291;28;20031;-60
2022/07/27 08:08:31;;;;;;;7.20;4.68;;;19.40;99.90;;;;;;5049235;28;20033;-60
2022/07/27 08:10:57;;;;;;;5.43;4.20;;;19.50;99.90;;;;;;5052266;28;20032;-60
2022/07/27 08:13:23;;;;;;;6.03;4.65;;;19.70;99.90;;;;;;5051003;28;20029;-61
2022/07/27 08:15:51;;;;;;;5.72;5.20;;;19.80;99.90;;;;;;5051447;28;20024;-58
2022/07/27 08:18:17;;;;;;;6.43;4.45;;;20.00;99.90;;;;;;5051681;28;20021;-58
2022/07/27 08:20:43;;;;;;;6.45;4.25;;;20.30;99.90;;;;;;5050748;28;20025;-58
2022/07/27 08:23:11;;;;;;;7.85;4.20;;;20.80;99.90;;;;;;5050659;28;20080;-58
2022/07/27 08:25:37;;;;;;;5.35;4.18;;;21.30;99.90;;;;;;5050534;28;20053;-59
2022/07/27 08:28:02;;;;;;;4.57;4.03;;;21.80;99.90;;;;;;5051353;28;20144;-59
2022/07/27 08:30:28;;;;;;;3.92;3.53;;;22.50;99.00;;;;;;5032959;28;20483;-58
2022/07/27 08:32:57;;;;;;;3.67;3.38;;;23.40;93.70;;;;;;5051235;28;20056;-58
2022/07/27 08:35:23;;;;;;;3.72;3.42;;;24.40;91.70;;;;;;5050371;28;20033;-59
2022/07/27 08:37:49;;;;;;;3.67;2.95;;;25.30;85.70;;;;;;5049866;28;20032;-59
2022/07/27 08:40:16;;;;;;;4.30;2.95;;;25.80;78.10;;;;;;5051251;28;20041;-59
2022/07/27 08:42:42;;;;;;;4.88;3.00;;;25.70;73.40;;;;;;5050973;28;20044;-59
2022/07/27 08:45:11;;;;;;;3.65;2.65;;;25.30;70.80;;;;;;5050918;28;20080;-59
2022/07/27 08:47:38;;;;;;;4.28;2.80;;;25.50;75.10;;;;;;5049888;28;20029;-59
2022/07/27 08:50:22;;;;;;;4.88;2.90;;;25.70;74.20;;;;;;5051170;28;20045;-59
2022/07/27 08:52:51;;;;;;;3.38;2.65;;;25.90;73.70;;;;;;5050641;28;20095;-59
2022/07/27 08:55:18;;;;;;;5.35;3.17;;;26.50;70.40;;;;;;5051253;28;20128;-58
2022/07/27 08:57:43;;;;;;;5.53;2.80;;;26.50;69.00;;;;;;5050124;28;20017;-59
2022/07/27 09:00:11;;;;;;;6.57;3.33;;;26.60;69.40;;;;;;5051018;28;20478;-59
2022/07/27 09:02:39;;;;;;;5.38;2.75;;;27.00;68.80;;;;;;5049100;28;20474;-59
2022/07/27 09:05:06;;;;;;;3.55;2.78;;;27.40;66.00;;;;;;5048866;28;20029;-59
2022/07/27 09:07:31;;;;;;;4.68;2.72;;;27.50;64.00;;;;;;5050395;28;20818;-59
2022/07/27 09:09:58;;;;;;;6.25;2.90;;;27.70;65.40;;;;;;5050120;28;20065;-59
2022/07/27 09:12:28;;;;;;;6.10;2.92;;;28.00;61.90;;;;;;5050119;28;20025;-59
2022/07/27 09:15:05;;;;;;;3.15;2.60;;;27.80;65.60;;;;;;5049954;28;20025;-59
2022/07/27 09:17:30;;;;;;;3.75;2.75;;;27.50;64.30;;;;;;5049080;28;20140;-59
2022/07/27 09:19:59;;;;;;;4.10;2.42;;;26.80;64.80;;;;;;5048681;28;20100;-59
2022/07/27 09:22:46;;;;;;;3.17;2.42;;;26.60;69.10;;;;;;5049408;28;20136;-59
2022/07/27 09:25:14;;;;;;;5.95;2.95;;;26.50;65.40;;;;;;5041208;28;20033;-59
2022/07/27 09:27:42;;;;;;;3.03;2.15;;;26.50;66.90;;;;;;5049554;28;20105;-58
2022/07/27 09:30:10;;;;;;;7.65;3.00;;;26.20;67.90;;;;;;5049416;28;20075;-59
2022/07/27 09:32:37;;;;;;;4.20;2.33;;;25.60;70.40;;;;;;5047538;28;20025;-59
2022/07/27 09:35:17;;;;;;;8.88;3.00;;;25.10;71.50;;;;;;5046019;28;20116;-59
2022/07/27 09:37:43;;;;;;;3.45;2.70;;;24.80;73.40;;;;;;5047920;28;20029;-59
2022/07/27 09:40:13;;;;;;;3.50;2.75;;;24.80;74.10;;;;;;5044552;28;20389;-62
2022/07/27 09:42:39;;;;;;;4.22;3.03;;;24.80;73.20;;;;;;5049541;28;20472;-61
2022/07/27 09:45:32;;;;;;;4.50;3.08;;;24.80;71.90;;;;;;5047994;28;20037;-62
2022/07/27 09:48:07;;;;;;;4.05;3.08;;;24.80;70.30;;;;;;5049877;28;20384;-61
2022/07/27 09:50:33;;;;;;;7.43;3.00;;;24.80;68.90;;;;;;5049268;28;20037;-61
2022/07/27 09:53:33;;;;;;;3.13;2.35;;;24.90;71.00;;;;;;5049893;28;20079;-61
2022/07/27 09:56:09;;;;;;;6.78;2.35;;;24.80;69.80;;;;;;5015234;28;20500;-61
2022/07/27 09:58:55;;;;;;;6.25;2.47;;;24.70;70.40;;;;;;5048933;28;20119;-61
2022/07/27 10:01:22;;;;;;;6.63;2.40;;;24.30;69.70;;;;;;5049978;28;20531;-60
2022/07/27 10:03:57;;;;;;;4.70;2.35;;;24.30;70.50;;;;;;5049350;28;20476;-60
2022/07/27 10:06:24;;;;;;;5.60;2.15;;;24.40;71.10;;;;;;5050571;28;20009;-60
2022/07/27 10:08:51;;;;;;;2.80;1.85;;;24.60;70.80;;;;;;5047620;28;20108;-61
2022/07/27 10:11:21;;;;;;;2.45;1.70;;;24.70;71.30;;;;;;5052697;28;20021;-60
2022/07/27 10:13:49;;;;;;;4.38;1.90;;;24.90;68.00;;;;;;5049246;28;20041;-61
2022/07/27 10:16:23;;;;;;;3.45;2.00;;;25.00;66.40;;;;;;5048714;28;20033;-60
2022/07/27 10:19:12;;;;;;;5.82;2.38;;;25.30;68.50;;;;;;5048779;28;20025;-62
2022/07/27 10:21:39;;;;;;;5.70;2.00;;;25.40;63.20;;;;;;5049146;28;20708;-61
2022/07/27 10:24:12;;;;;;;4.97;1.98;;;24.60;64.70;;;;;;5048766;28;20071;-61
2022/07/27 10:26:39;;;;;;;6.22;2.15;;;25.20;67.90;;;;;;5048436;28;20417;-62
2022/07/27 10:29:17;;;;;;;5.38;1.98;;;25.80;63.10;;;;;;5049445;28;20092;-60
2022/07/27 10:31:52;;;;;;;3.88;1.77;;;26.60;64.10;;;;;;5049005;28;20041;-61
2022/07/27 10:34:42;;;;;;;5.00;2.13;;;27.80;62.70;;;;;;5048983;28;20109;-63
2022/07/27 10:37:10;;;;;;;5.30;1.92;;;27.50;56.20;;;;;;5048012;28;20037;-61
2022/07/27 10:39:39;;;;;;;5.20;1.65;;;27.90;59.20;;;;;;5050194;28;20393;-61
2022/07/27 10:42:23;;;;;;;5.88;1.90;;;27.20;56.60;;;;;;5049124;28;20033;-61
2022/07/27 10:44:52;;;;;;;2.97;1.48;;;26.80;58.80;;;;;;5048524;28;20029;-61
2022/07/27 10:47:51;;;;;;;3.97;2.05;;;26.80;62.20;;;;;;5048449;28;20032;-62
2022/07/27 10:50:16;;;;;;;5.43;2.00;;;26.40;60.40;;;;;;5041057;28;20373;-61
2022/07/27 10:52:42;;;;;;;4.40;1.55;;;26.40;64.70;;;;;;5048054;28;20037;-62
2022/07/27 10:55:31;;;;;;;3.30;1.70;;;27.00;59.80;;;;;;5047470;28;20187;-60
2022/07/27 10:57:56;;;;;;;4.18;1.98;;;27.00;60.80;;;;;;5045967;28;20047;-63
2022/07/27 11:00:54;;;;;;;3.30;1.60;;;27.70;57.40;;;;;;5047851;28;20032;-61
2022/07/27 11:03:20;;;;;;;4.15;1.65;;;28.10;57.80;;;;;;5019243;28;20067;-61
2022/07/27 11:06:07;;;;;;;4.30;2.03;;;28.40;58.50;;;;;;5047244;28;20087;-61
2022/07/27 11:08:39;;;;;;;4.25;2.00;;;28.40;56.50;;;;;;5050065;28;20056;-60
2022/07/27 11:11:07;;;;;;;4.63;1.45;;;28.00;56.70;;;;;;5048760;28;20040;-61
2022/07/27 11:13:34;;;;;;;3.13;1.80;;;27.80;57.60;;;;;;5048627;28;20607;-61
2022/07/27 11:16:05;;;;;;;2.88;1.77;;;27.50;58.00;;;;;;5029584;28;20028;-61
2022/07/27 11:18:36;;;;;;;3.63;1.60;;;27.60;58.00;;;;;;5049511;28;20477;-62
2022/07/27 11:21:22;;;;;;;2.67;1.77;;;27.80;58.00;;;;;;5046973;28;20040;-62
2022/07/27 11:23:54;;;;;;;3.55;2.10;;;28.00;57.50;;;;;;5033287;28;20041;-61
2022/07/27 11:26:24;;;;;;;4.03;2.00;;;28.10;57.40;;;;;;5036648;28;20028;-61
2022/07/27 11:28:51;;;;;;;4.68;2.13;;;27.90;58.10;;;;;;5047115;28;20136;-60
2022/07/27 11:31:17;;;;;;;6.10;2.42;;;27.60;57.10;;;;;;5048703;28;20030;-60
2022/07/27 11:33:57;;;;;;;3.85;1.80;;;27.30;58.10;;;;;;5047600;28;20028;-61
2022/07/27 11:36:34;;;;;;;3.08;1.80;;;27.00;59.60;;;;;;5048042;28;20076;-60
2022/07/27 11:39:01;;;;;;;4.25;1.52;;;26.90;58.50;;;;;;5045700;28;20099;-60
2022/07/27 11:41:32;;;;;;;3.13;1.60;;;26.70;59.40;;;;;;5049601;28;20036;-61
2022/07/27 11:44:03;;;;;;;5.57;1.48;;;26.60;58.60;;;;;;5047010;28;20412;-62
2022/07/27 11:46:32;;;;;;;5.97;1.60;;;26.60;59.60;;;;;;5045747;28;20044;-60
2022/07/27 11:49:07;;;;;;;2.90;1.38;;;26.70;60.60;;;;;;5046834;28;20103;-60
2022/07/27 11:51:35;;;;;;;4.00;1.58;;;26.90;57.40;;;;;;5047598;28;20500;-60
2022/07/27 11:54:06;;;;;;;2.38;1.10;;;27.00;57.60;;;;;;5048067;28;20041;-61
2022/07/27 11:56:35;;;;;;;4.38;1.17;;;26.70;57.00;;;;;;5047107;28;20059;-62
2022/07/27 11:59:15;;;;;;;2.65;1.30;;;26.50;59.20;;;;;;5047958;28;20029;-61
2022/07/27 12:01:46;;;;;;;3.00;1.30;;;26.70;57.70;;;;;;5046848;28;20025;-61
2022/07/27 12:04:20;;;;;;;1.90;1.30;;;27.00;58.20;;;;;;5047622;28;20519;-60
2022/07/27 12:06:58;;;;;;;3.58;1.40;;;27.30;57.20;;;;;;5048080;28;20087;-60
2022/07/27 12:09:25;;;;;;;4.82;1.25;;;27.30;57.60;;;;;;5045688;28;20108;-60
2022/07/27 12:11:57;;;;;;;3.60;1.30;;;27.30;56.70;;;;;;5048597;28;20037;-61
2022/07/27 12:14:33;;;;;;;3.90;1.20;;;27.20;57.90;;;;;;5028638;28;20031;-61
2022/07/27 12:17:14;;;;;;;2.42;1.20;;;27.30;57.50;;;;;;5048009;28;20430;-61
2022/07/27 12:19:39;;;;;;;;;;;27.50;57.50;;;;;;5029437;28;20108;-60
2022/07/27 12:22:06;;;;;;;2.22;1.10;;;27.80;56.10;;;;;;5047954;28;20019;-60
2022/07/27 12:24:39;;;;;;;7.90;1.00;;;28.20;56.30;;;;;;5046657;28;20032;-62
2022/07/27 12:27:13;;;;;;;3.15;1.02;;;28.50;54.30;;;;;;5047519;28;20036;-61
2022/07/27 12:30:06;;;;;;;2.97;1.00;;;28.50;54.00;;;;;;5047877;28;20547;-60
2022/07/27 12:32:36;;;;;;;3.00;1.27;;;28.40;53.90;;;;;;5050147;28;20512;-60
2022/07/27 12:35:19;;;;;;;3.25;1.10;;;28.10;54.40;;;;;;5050646;28;20056;-60
2022/07/27 12:37:45;;;;;;;3.83;1.08;;;28.00;55.80;;;;;;5049044;28;20025;-60
2022/07/27 12:40:15;;;;;;;4.90;1.10;;;27.70;55.20;;;;;;5051038;28;20127;-60
2022/07/27 12:42:41;;;;;;;2.53;1.23;;;27.70;55.10;;;;;;5050711;28;20071;-61
2022/07/27 12:45:13;;;;;;;2.25;1.00;;;27.50;55.40;;;;;;5051242;28;20040;-62
2022/07/27 12:47:41;;;;;;;3.03;1.27;;;27.80;54.20;;;;;;5049841;28;20488;-60
2022/07/27 12:50:25;;;;;;;2.15;1.30;;;28.00;53.00;;;;;;5050730;28;20108;-60
2022/07/27 12:52:52;;;;;;;4.68;1.15;;;28.30;53.00;;;;;;5051271;28;20115;-60
2022/07/27 12:55:20;;;;;;;3.85;1.00;;;28.60;52.30;;;;;;5050923;28;20037;-61
2022/07/27 12:57:47;;;;;;;1.77;1.30;;;28.70;52.60;;;;;;5049905;28;20021;-60